sensor_id;sensor_type;location;lat;lon;timestamp;P1;durP1;ratioP1;P2;durP2;ratioP2
35518;SDS011;21627;48.216;16.482;2022-09-09T00:02:05;1.30;;;0.77;;
35518;SDS011;21627;48.216;16.482;2022-09-09T00:07:37;6.90;;;1.10;;
35518;SDS011;21627;48.216;16.482;2022-09-09T00:13:22;1.55;;;0.82;;
35518;SDS011;21627;48.216;16.482;2022-09-09T00:18:48;2.13;;;0.90;;
35518;SDS011;21627;48.216;16.482;2022-09-09T00:21:33;1.38;;;0.75;;
35518;SDS011;21627;48.216;16.482;2022-09-09T00:24:18;1.48;;;0.90;;
35518;SDS011;21627;48.216;16.482;2022-09-09T00:26:53;5.40;;;0.77;;
35518;SDS011;21627;48.216;16.482;2022-09-09T00:32:12;2.42;;;0.88;;
35518;SDS011;21627;48.216;16.482;2022-09-09T00:34:56;1.23;;;0.75;;
35518;SDS011;21627;48.216;16.482;2022-09-09T00:37:38;0.85;;;0.60;;
35518;SDS011;21627;48.216;16.482;2022-09-09T00:40:29;3.55;;;0.60;;
35518;SDS011;21627;48.216;16.482;2022-09-09T00:43:21;3.47;;;0.82;;
35518;SDS011;21627;48.216;16.482;2022-09-09T00:51:56;1.20;;;0.80;;
35518;SDS011;21627;48.216;16.482;2022-09-09T00:57:42;7.65;;;1.33;;
35518;SDS011;21627;48.216;16.482;2022-09-09T01:08:57;1.75;;;0.73;;
35518;SDS011;21627;48.216;16.482;2022-09-09T01:14:52;3.35;;;1.00;;
35518;SDS011;21627;48.216;16.482;2022-09-09T01:26:21;4.07;;;0.70;;
35518;SDS011;21627;48.216;16.482;2022-09-09T01:29:12;3.67;;;0.80;;
35518;SDS011;21627;48.216;16.482;2022-09-09T01:31:51;2.47;;;0.70;;
35518;SDS011;21627;48.216;16.482;2022-09-09T01:34:36;2.40;;;1.02;;
35518;SDS011;21627;48.216;16.482;2022-09-09T01:37:10;9.43;;;1.50;;
35518;SDS011;21627;48.216;16.482;2022-09-09T01:39:43;2.83;;;0.95;;
35518;SDS011;21627;48.216;16.482;2022-09-09T01:42:13;1.70;;;1.15;;
35518;SDS011;21627;48.216;16.482;2022-09-09T01:44:46;3.50;;;0.85;;
35518;SDS011;21627;48.216;16.482;2022-09-09T01:47:14;2.70;;;1.40;;
35518;SDS011;21627;48.216;16.482;2022-09-09T01:49:41;1.40;;;1.00;;
35518;SDS011;21627;48.216;16.482;2022-09-09T01:52:12;0.85;;;0.73;;
35518;SDS011;21627;48.216;16.482;2022-09-09T01:54:39;4.07;;;0.85;;
35518;SDS011;21627;48.216;16.482;2022-09-09T02:05:40;3.50;;;0.90;;
35518;SDS011;21627;48.216;16.482;2022-09-09T02:08:48;1.38;;;1.10;;
35518;SDS011;21627;48.216;16.482;2022-09-09T02:11:22;8.05;;;0.90;;
35518;SDS011;21627;48.216;16.482;2022-09-09T02:13:57;4.38;;;1.20;;
35518;SDS011;21627;48.216;16.482;2022-09-09T02:16:47;2.22;;;0.98;;
35518;SDS011;21627;48.216;16.482;2022-09-09T02:19:25;4.53;;;1.15;;
35518;SDS011;21627;48.216;16.482;2022-09-09T02:22:05;1.95;;;1.23;;
35518;SDS011;21627;48.216;16.482;2022-09-09T02:24:33;4.93;;;1.00;;
35518;SDS011;21627;48.216;16.482;2022-09-09T02:27:04;5.13;;;1.13;;
35518;SDS011;21627;48.216;16.482;2022-09-09T02:29:39;7.03;;;1.27;;
35518;SDS011;21627;48.216;16.482;2022-09-09T02:32:10;2.42;;;1.10;;
35518;SDS011;21627;48.216;16.482;2022-09-09T02:34:47;4.50;;;1.42;;
35518;SDS011;21627;48.216;16.482;2022-09-09T02:37:34;1.13;;;0.98;;
35518;SDS011;21627;48.216;16.482;2022-09-09T02:40:06;8.27;;;1.27;;
35518;SDS011;21627;48.216;16.482;2022-09-09T02:42:40;1.48;;;0.95;;
35518;SDS011;21627;48.216;16.482;2022-09-09T02:45:14;2.00;;;0.85;;
35518;SDS011;21627;48.216;16.482;2022-09-09T02:48:03;2.20;;;1.00;;
35518;SDS011;21627;48.216;16.482;2022-09-09T02:53:29;2.05;;;0.90;;
35518;SDS011;21627;48.216;16.482;2022-09-09T02:56:43;2.67;;;0.90;;
35518;SDS011;21627;48.216;16.482;2022-09-09T02:59:17;1.40;;;0.75;;
35518;SDS011;21627;48.216;16.482;2022-09-09T03:01:45;1.23;;;1.00;;
35518;SDS011;21627;48.216;16.482;2022-09-09T03:04:13;2.22;;;1.20;;
35518;SDS011;21627;48.216;16.482;2022-09-09T03:06:40;1.48;;;0.80;;
35518;SDS011;21627;48.216;16.482;2022-09-09T03:09:07;3.60;;;1.00;;
35518;SDS011;21627;48.216;16.482;2022-09-09T03:11:37;1.88;;;1.23;;
35518;SDS011;21627;48.216;16.482;2022-09-09T03:14:05;3.05;;;0.80;;
35518;SDS011;21627;48.216;16.482;2022-09-09T03:16:32;2.38;;;1.05;;
35518;SDS011;21627;48.216;16.482;2022-09-09T03:19:01;1.98;;;0.90;;
35518;SDS011;21627;48.216;16.482;2022-09-09T03:21:28;3.30;;;0.85;;
35518;SDS011;21627;48.216;16.482;2022-09-09T03:23:55;3.00;;;1.02;;
35518;SDS011;21627;48.216;16.482;2022-09-09T03:26:26;1.98;;;1.15;;
35518;SDS011;21627;48.216;16.482;2022-09-09T03:28:53;1.70;;;0.98;;
35518;SDS011;21627;48.216;16.482;2022-09-09T03:31:21;2.90;;;1.02;;
35518;SDS011;21627;48.216;16.482;2022-09-09T03:33:48;4.10;;;0.85;;
35518;SDS011;21627;48.216;16.482;2022-09-09T03:36:16;2.70;;;1.10;;
35518;SDS011;21627;48.216;16.482;2022-09-09T03:38:43;1.27;;;1.02;;
35518;SDS011;21627;48.216;16.482;2022-09-09T03:41:10;4.90;;;1.05;;
35518;SDS011;21627;48.216;16.482;2022-09-09T03:43:39;3.47;;;1.10;;
35518;SDS011;21627;48.216;16.482;2022-09-09T03:46:06;4.00;;;1.13;;
35518;SDS011;21627;48.216;16.482;2022-09-09T03:48:33;1.83;;;1.23;;
35518;SDS011;21627;48.216;16.482;2022-09-09T03:51:01;4.95;;;1.40;;
35518;SDS011;21627;48.216;16.482;2022-09-09T03:53:29;2.08;;;1.10;;
35518;SDS011;21627;48.216;16.482;2022-09-09T03:55:59;1.75;;;1.45;;
35518;SDS011;21627;48.216;16.482;2022-09-09T03:58:27;7.07;;;1.20;;
35518;SDS011;21627;48.216;16.482;2022-09-09T04:01:13;1.63;;;1.17;;
35518;SDS011;21627;48.216;16.482;2022-09-09T04:03:41;3.20;;;1.00;;
35518;SDS011;21627;48.216;16.482;2022-09-09T04:06:09;12.70;;;1.70;;
35518;SDS011;21627;48.216;16.482;2022-09-09T04:08:42;26.58;;;3.83;;
35518;SDS011;21627;48.216;16.482;2022-09-09T04:11:09;16.85;;;3.05;;
35518;SDS011;21627;48.216;16.482;2022-09-09T04:13:37;20.10;;;3.63;;
35518;SDS011;21627;48.216;16.482;2022-09-09T04:16:09;21.80;;;3.90;;
35518;SDS011;21627;48.216;16.482;2022-09-09T04:18:43;50.95;;;7.55;;
35518;SDS011;21627;48.216;16.482;2022-09-09T04:21:10;28.55;;;5.68;;
35518;SDS011;21627;48.216;16.482;2022-09-09T04:23:38;21.80;;;3.80;;
35518;SDS011;21627;48.216;16.482;2022-09-09T04:26:06;27.65;;;4.22;;
35518;SDS011;21627;48.216;16.482;2022-09-09T04:28:39;11.93;;;3.30;;
35518;SDS011;21627;48.216;16.482;2022-09-09T04:31:08;10.95;;;2.88;;
35518;SDS011;21627;48.216;16.482;2022-09-09T04:33:41;5.00;;;2.05;;
35518;SDS011;21627;48.216;16.482;2022-09-09T04:36:12;6.25;;;2.22;;
35518;SDS011;21627;48.216;16.482;2022-09-09T04:38:41;3.15;;;1.70;;
35518;SDS011;21627;48.216;16.482;2022-09-09T04:41:11;7.03;;;2.22;;
35518;SDS011;21627;48.216;16.482;2022-09-09T04:43:39;7.05;;;1.70;;
35518;SDS011;21627;48.216;16.482;2022-09-09T04:46:07;4.88;;;1.75;;
35518;SDS011;21627;48.216;16.482;2022-09-09T04:48:34;5.22;;;1.80;;
35518;SDS011;21627;48.216;16.482;2022-09-09T04:51:03;6.30;;;2.58;;
35518;SDS011;21627;48.216;16.482;2022-09-09T04:53:32;4.00;;;1.48;;
35518;SDS011;21627;48.216;16.482;2022-09-09T04:56:10;6.55;;;2.00;;
35518;SDS011;21627;48.216;16.482;2022-09-09T04:58:42;6.88;;;2.78;;
35518;SDS011;21627;48.216;16.482;2022-09-09T05:01:10;5.75;;;1.80;;
35518;SDS011;21627;48.216;16.482;2022-09-09T05:03:38;3.97;;;1.90;;
35518;SDS011;21627;48.216;16.482;2022-09-09T05:06:16;2.03;;;1.58;;
35518;SDS011;21627;48.216;16.482;2022-09-09T05:08:45;1.83;;;1.60;;
35518;SDS011;21627;48.216;16.482;2022-09-09T05:11:13;3.72;;;2.00;;
35518;SDS011;21627;48.216;16.482;2022-09-09T05:13:53;2.67;;;1.50;;
35518;SDS011;21627;48.216;16.482;2022-09-09T05:16:20;3.33;;;2.25;;
35518;SDS011;21627;48.216;16.482;2022-09-09T05:18:49;3.80;;;1.90;;
35518;SDS011;21627;48.216;16.482;2022-09-09T05:21:18;5.07;;;2.15;;
35518;SDS011;21627;48.216;16.482;2022-09-09T05:23:47;2.88;;;1.80;;
35518;SDS011;21627;48.216;16.482;2022-09-09T05:26:19;2.97;;;1.70;;
35518;SDS011;21627;48.216;16.482;2022-09-09T05:28:48;1.75;;;1.58;;
35518;SDS011;21627;48.216;16.482;2022-09-09T05:31:16;3.28;;;1.88;;
35518;SDS011;21627;48.216;16.482;2022-09-09T05:33:45;2.58;;;1.95;;
35518;SDS011;21627;48.216;16.482;2022-09-09T05:36:18;3.50;;;2.00;;
35518;SDS011;21627;48.216;16.482;2022-09-09T05:38:47;4.93;;;1.90;;
35518;SDS011;21627;48.216;16.482;2022-09-09T05:41:16;3.22;;;1.92;;
35518;SDS011;21627;48.216;16.482;2022-09-09T05:43:46;6.60;;;2.00;;
35518;SDS011;21627;48.216;16.482;2022-09-09T05:48:48;6.32;;;2.92;;
35518;SDS011;21627;48.216;16.482;2022-09-09T05:51:21;6.32;;;2.75;;
35518;SDS011;21627;48.216;16.482;2022-09-09T05:53:52;3.10;;;2.30;;
35518;SDS011;21627;48.216;16.482;2022-09-09T05:56:22;4.78;;;2.72;;
35518;SDS011;21627;48.216;16.482;2022-09-09T05:58:54;7.63;;;3.08;;
35518;SDS011;21627;48.216;16.482;2022-09-09T06:01:26;9.55;;;4.93;;
35518;SDS011;21627;48.216;16.482;2022-09-09T06:03:59;7.07;;;3.15;;
35518;SDS011;21627;48.216;16.482;2022-09-09T06:06:31;5.38;;;2.75;;
35518;SDS011;21627;48.216;16.482;2022-09-09T06:09:07;6.03;;;2.97;;
35518;SDS011;21627;48.216;16.482;2022-09-09T06:11:43;5.82;;;3.40;;
35518;SDS011;21627;48.216;16.482;2022-09-09T06:14:10;6.40;;;3.50;;
35518;SDS011;21627;48.216;16.482;2022-09-09T06:16:38;7.40;;;3.65;;
35518;SDS011;21627;48.216;16.482;2022-09-09T06:19:05;7.25;;;3.60;;
35518;SDS011;21627;48.216;16.482;2022-09-09T06:21:33;6.45;;;3.50;;
35518;SDS011;21627;48.216;16.482;2022-09-09T06:24:07;22.35;;;4.80;;
35518;SDS011;21627;48.216;16.482;2022-09-09T06:26:35;7.78;;;3.88;;
35518;SDS011;21627;48.216;16.482;2022-09-09T06:29:08;5.57;;;3.08;;
35518;SDS011;21627;48.216;16.482;2022-09-09T06:31:36;5.30;;;2.92;;
35518;SDS011;21627;48.216;16.482;2022-09-09T06:34:04;5.15;;;3.72;;
35518;SDS011;21627;48.216;16.482;2022-09-09T06:36:34;7.07;;;3.42;;
35518;SDS011;21627;48.216;16.482;2022-09-09T06:39:04;6.68;;;3.17;;
35518;SDS011;21627;48.216;16.482;2022-09-09T06:41:39;6.10;;;3.63;;
35518;SDS011;21627;48.216;16.482;2022-09-09T06:44:07;7.22;;;2.80;;
35518;SDS011;21627;48.216;16.482;2022-09-09T06:46:34;7.35;;;3.08;;
35518;SDS011;21627;48.216;16.482;2022-09-09T06:49:02;7.50;;;3.50;;
35518;SDS011;21627;48.216;16.482;2022-09-09T06:51:30;8.50;;;2.78;;
35518;SDS011;21627;48.216;16.482;2022-09-09T06:54:12;5.00;;;3.45;;
35518;SDS011;21627;48.216;16.482;2022-09-09T06:56:39;7.32;;;3.10;;
35518;SDS011;21627;48.216;16.482;2022-09-09T06:59:12;6.90;;;3.33;;
35518;SDS011;21627;48.216;16.482;2022-09-09T07:01:40;11.30;;;3.92;;
35518;SDS011;21627;48.216;16.482;2022-09-09T07:04:18;7.15;;;3.53;;
35518;SDS011;21627;48.216;16.482;2022-09-09T07:06:48;5.88;;;3.60;;
35518;SDS011;21627;48.216;16.482;2022-09-09T07:09:15;16.30;;;4.07;;
35518;SDS011;21627;48.216;16.482;2022-09-09T07:11:47;6.30;;;2.70;;
35518;SDS011;21627;48.216;16.482;2022-09-09T07:14:18;6.10;;;2.33;;
35518;SDS011;21627;48.216;16.482;2022-09-09T07:16:46;10.18;;;2.28;;
35518;SDS011;21627;48.216;16.482;2022-09-09T07:19:16;13.50;;;2.50;;
35518;SDS011;21627;48.216;16.482;2022-09-09T07:21:44;9.10;;;2.03;;
35518;SDS011;21627;48.216;16.482;2022-09-09T07:24:11;3.53;;;1.48;;
35518;SDS011;21627;48.216;16.482;2022-09-09T07:26:39;2.40;;;1.52;;
35518;SDS011;21627;48.216;16.482;2022-09-09T07:29:07;1.75;;;1.52;;
35518;SDS011;21627;48.216;16.482;2022-09-09T07:31:36;2.72;;;1.60;;
35518;SDS011;21627;48.216;16.482;2022-09-09T07:34:06;4.20;;;1.65;;
35518;SDS011;21627;48.216;16.482;2022-09-09T07:36:35;4.70;;;1.58;;
35518;SDS011;21627;48.216;16.482;2022-09-09T07:39:05;2.65;;;1.83;;
35518;SDS011;21627;48.216;16.482;2022-09-09T07:41:40;4.70;;;1.50;;
35518;SDS011;21627;48.216;16.482;2022-09-09T07:44:11;3.28;;;2.05;;
35518;SDS011;21627;48.216;16.482;2022-09-09T07:46:41;3.97;;;2.05;;
35518;SDS011;21627;48.216;16.482;2022-09-09T07:49:11;3.17;;;2.10;;
35518;SDS011;21627;48.216;16.482;2022-09-09T07:51:40;4.20;;;2.13;;
35518;SDS011;21627;48.216;16.482;2022-09-09T07:54:11;3.67;;;1.80;;
35518;SDS011;21627;48.216;16.482;2022-09-09T07:56:45;7.57;;;1.70;;
35518;SDS011;21627;48.216;16.482;2022-09-09T07:59:13;2.97;;;1.67;;
35518;SDS011;21627;48.216;16.482;2022-09-09T08:01:47;4.20;;;1.88;;
35518;SDS011;21627;48.216;16.482;2022-09-09T08:04:21;5.93;;;2.47;;
35518;SDS011;21627;48.216;16.482;2022-09-09T08:06:55;6.43;;;2.20;;
35518;SDS011;21627;48.216;16.482;2022-09-09T08:09:26;6.05;;;2.00;;
35518;SDS011;21627;48.216;16.482;2022-09-09T08:11:58;6.43;;;1.90;;
35518;SDS011;21627;48.216;16.482;2022-09-09T08:14:30;5.88;;;2.13;;
35518;SDS011;21627;48.216;16.482;2022-09-09T08:17:00;7.82;;;2.22;;
35518;SDS011;21627;48.216;16.482;2022-09-09T08:19:27;4.40;;;1.58;;
35518;SDS011;21627;48.216;16.482;2022-09-09T08:22:01;2.88;;;1.77;;
35518;SDS011;21627;48.216;16.482;2022-09-09T08:24:29;6.45;;;1.95;;
35518;SDS011;21627;48.216;16.482;2022-09-09T08:26:56;4.05;;;2.00;;
35518;SDS011;21627;48.216;16.482;2022-09-09T08:29:23;5.90;;;1.80;;
35518;SDS011;21627;48.216;16.482;2022-09-09T08:31:55;3.58;;;1.73;;
35518;SDS011;21627;48.216;16.482;2022-09-09T08:34:24;3.17;;;1.42;;
35518;SDS011;21627;48.216;16.482;2022-09-09T08:36:56;2.47;;;1.50;;
35518;SDS011;21627;48.216;16.482;2022-09-09T08:39:26;1.63;;;1.17;;
35518;SDS011;21627;48.216;16.482;2022-09-09T08:50:35;4.72;;;1.10;;
35518;SDS011;21627;48.216;16.482;2022-09-09T08:56:08;3.80;;;1.35;;
35518;SDS011;21627;48.216;16.482;2022-09-09T08:58:43;1.83;;;1.02;;
35518;SDS011;21627;48.216;16.482;2022-09-09T09:13:30;1.80;;;1.00;;
35518;SDS011;21627;48.216;16.482;2022-09-09T09:16:34;6.00;;;0.90;;
35518;SDS011;21627;48.216;16.482;2022-09-09T09:19:24;2.45;;;0.80;;
35518;SDS011;21627;48.216;16.482;2022-09-09T09:21:54;1.27;;;0.90;;
35518;SDS011;21627;48.216;16.482;2022-09-09T09:30:34;1.35;;;0.80;;
35518;SDS011;21627;48.216;16.482;2022-09-09T09:36:20;6.72;;;1.00;;
35518;SDS011;21627;48.216;16.482;2022-09-09T09:39:08;3.88;;;1.02;;
35518;SDS011;21627;48.216;16.482;2022-09-09T09:41:56;2.63;;;0.93;;
35518;SDS011;21627;48.216;16.482;2022-09-09T09:44:28;2.83;;;1.10;;
35518;SDS011;21627;48.216;16.482;2022-09-09T09:47:06;7.03;;;1.10;;
35518;SDS011;21627;48.216;16.482;2022-09-09T09:49:33;1.85;;;0.80;;
35518;SDS011;21627;48.216;16.482;2022-09-09T09:52:01;2.70;;;0.73;;
35518;SDS011;21627;48.216;16.482;2022-09-09T09:54:31;3.08;;;0.70;;
35518;SDS011;21627;48.216;16.482;2022-09-09T09:57:08;1.10;;;0.75;;
35518;SDS011;21627;48.216;16.482;2022-09-09T09:59:41;3.30;;;0.65;;
35518;SDS011;21627;48.216;16.482;2022-09-09T10:04:39;2.35;;;0.77;;
35518;SDS011;21627;48.216;16.482;2022-09-09T10:07:17;2.10;;;0.80;;
35518;SDS011;21627;48.216;16.482;2022-09-09T10:09:52;5.25;;;1.63;;
35518;SDS011;21627;48.216;16.482;2022-09-09T10:12:35;1.63;;;0.70;;
35518;SDS011;21627;48.216;16.482;2022-09-09T10:16:00;2.20;;;1.13;;
35518;SDS011;21627;48.216;16.482;2022-09-09T10:18:59;2.15;;;0.50;;
35518;SDS011;21627;48.216;16.482;2022-09-09T10:21:51;2.45;;;0.50;;
35518;SDS011;21627;48.216;16.482;2022-09-09T10:24:51;2.85;;;0.50;;
35518;SDS011;21627;48.216;16.482;2022-09-09T10:33:50;1.35;;;0.70;;
35518;SDS011;21627;48.216;16.482;2022-09-09T10:36:23;3.15;;;1.10;;
35518;SDS011;21627;48.216;16.482;2022-09-09T10:39:06;0.93;;;0.57;;
35518;SDS011;21627;48.216;16.482;2022-09-09T10:42:07;2.60;;;0.90;;
35518;SDS011;21627;48.216;16.482;2022-09-09T10:50:25;4.03;;;0.70;;
35518;SDS011;21627;48.216;16.482;2022-09-09T10:56:12;2.40;;;0.90;;
35518;SDS011;21627;48.216;16.482;2022-09-09T10:59:00;2.45;;;0.63;;
35518;SDS011;21627;48.216;16.482;2022-09-09T11:02:42;1.85;;;0.80;;
35518;SDS011;21627;48.216;16.482;2022-09-09T11:05:02;2.13;;;0.75;;
35518;SDS011;21627;48.216;16.482;2022-09-09T11:13:52;0.75;;;0.70;;
35518;SDS011;21627;48.216;16.482;2022-09-09T11:16:40;0.68;;;0.47;;
35518;SDS011;21627;48.216;16.482;2022-09-09T11:19:33;1.88;;;0.55;;
35518;SDS011;21627;48.216;16.482;2022-09-09T11:25:08;0.95;;;0.60;;
35518;SDS011;21627;48.216;16.482;2022-09-09T11:31:04;1.30;;;1.13;;
35518;SDS011;21627;48.216;16.482;2022-09-09T11:37:42;1.60;;;0.40;;
35518;SDS011;21627;48.216;16.482;2022-09-09T11:40:28;0.85;;;0.40;;
35518;SDS011;21627;48.216;16.482;2022-09-09T11:43:14;1.75;;;0.47;;
35518;SDS011;21627;48.216;16.482;2022-09-09T11:45:52;0.60;;;0.50;;
35518;SDS011;21627;48.216;16.482;2022-09-09T11:48:34;2.03;;;0.70;;
35518;SDS011;21627;48.216;16.482;2022-09-09T11:51:24;0.47;;;0.38;;
35518;SDS011;21627;48.216;16.482;2022-09-09T11:53:55;2.50;;;0.80;;
35518;SDS011;21627;48.216;16.482;2022-09-09T11:56:46;1.05;;;0.47;;
35518;SDS011;21627;48.216;16.482;2022-09-09T11:59:20;2.67;;;0.60;;
35518;SDS011;21627;48.216;16.482;2022-09-09T12:02:03;2.58;;;0.82;;
35518;SDS011;21627;48.216;16.482;2022-09-09T12:07:36;1.17;;;0.55;;
35518;SDS011;21627;48.216;16.482;2022-09-09T12:15:36;4.32;;;0.60;;
35518;SDS011;21627;48.216;16.482;2022-09-09T12:18:23;3.22;;;0.73;;
35518;SDS011;21627;48.216;16.482;2022-09-09T12:24:19;2.75;;;0.63;;
35518;SDS011;21627;48.216;16.482;2022-09-09T12:28:04;1.77;;;0.77;;
35518;SDS011;21627;48.216;16.482;2022-09-09T12:30:17;0.82;;;0.50;;
35518;SDS011;21627;48.216;16.482;2022-09-09T12:32:45;0.80;;;0.57;;
35518;SDS011;21627;48.216;16.482;2022-09-09T12:35:22;4.80;;;0.82;;
35518;SDS011;21627;48.216;16.482;2022-09-09T12:37:58;2.25;;;0.68;;
35518;SDS011;21627;48.216;16.482;2022-09-09T12:40:29;2.00;;;0.70;;
35518;SDS011;21627;48.216;16.482;2022-09-09T12:43:02;1.65;;;0.45;;
35518;SDS011;21627;48.216;16.482;2022-09-09T12:45:47;4.28;;;0.60;;
35518;SDS011;21627;48.216;16.482;2022-09-09T12:51:01;1.55;;;0.68;;
35518;SDS011;21627;48.216;16.482;2022-09-09T12:53:37;1.75;;;0.30;;
35518;SDS011;21627;48.216;16.482;2022-09-09T12:56:06;0.77;;;0.50;;
35518;SDS011;21627;48.216;16.482;2022-09-09T12:58:39;2.05;;;0.63;;
35518;SDS011;21627;48.216;16.482;2022-09-09T13:01:22;1.58;;;0.73;;
35518;SDS011;21627;48.216;16.482;2022-09-09T13:03:56;0.65;;;0.50;;
35518;SDS011;21627;48.216;16.482;2022-09-09T13:06:27;0.75;;;0.60;;
35518;SDS011;21627;48.216;16.482;2022-09-09T13:08:58;4.00;;;0.50;;
35518;SDS011;21627;48.216;16.482;2022-09-09T13:11:31;1.95;;;0.50;;
35518;SDS011;21627;48.216;16.482;2022-09-09T13:14:06;2.33;;;0.52;;
35518;SDS011;21627;48.216;16.482;2022-09-09T13:19:28;0.70;;;0.50;;
35518;SDS011;21627;48.216;16.482;2022-09-09T13:22:13;2.83;;;0.80;;
35518;SDS011;21627;48.216;16.482;2022-09-09T13:24:46;1.20;;;0.50;;
35518;SDS011;21627;48.216;16.482;2022-09-09T13:27:23;0.98;;;0.40;;
35518;SDS011;21627;48.216;16.482;2022-09-09T13:30:25;2.90;;;0.57;;
35518;SDS011;21627;48.216;16.482;2022-09-09T13:38:36;0.40;;;0.32;;
35518;SDS011;21627;48.216;16.482;2022-09-09T13:41:05;1.50;;;0.57;;
35518;SDS011;21627;48.216;16.482;2022-09-09T13:43:36;3.15;;;0.50;;
35518;SDS011;21627;48.216;16.482;2022-09-09T13:46:26;1.35;;;0.40;;
35518;SDS011;21627;48.216;16.482;2022-09-09T13:49:18;3.67;;;0.60;;
35518;SDS011;21627;48.216;16.482;2022-09-09T13:51:51;3.15;;;1.65;;
35518;SDS011;21627;48.216;16.482;2022-09-09T13:54:31;1.00;;;0.35;;
35518;SDS011;21627;48.216;16.482;2022-09-09T13:56:58;1.10;;;0.40;;
35518;SDS011;21627;48.216;16.482;2022-09-09T13:59:27;3.35;;;0.90;;
35518;SDS011;21627;48.216;16.482;2022-09-09T14:02:18;1.55;;;0.45;;
35518;SDS011;21627;48.216;16.482;2022-09-09T14:04:46;0.82;;;0.32;;
35518;SDS011;21627;48.216;16.482;2022-09-09T14:07:17;1.77;;;0.50;;
35518;SDS011;21627;48.216;16.482;2022-09-09T14:09:45;2.60;;;0.95;;
35518;SDS011;21627;48.216;16.482;2022-09-09T14:12:16;2.45;;;0.65;;
35518;SDS011;21627;48.216;16.482;2022-09-09T14:14:44;2.17;;;0.70;;
35518;SDS011;21627;48.216;16.482;2022-09-09T14:17:11;0.63;;;0.50;;
35518;SDS011;21627;48.216;16.482;2022-09-09T14:19:38;1.38;;;0.60;;
35518;SDS011;21627;48.216;16.482;2022-09-09T14:22:05;1.63;;;0.68;;
35518;SDS011;21627;48.216;16.482;2022-09-09T14:24:33;4.93;;;0.60;;
35518;SDS011;21627;48.216;16.482;2022-09-09T14:27:00;1.40;;;0.50;;
35518;SDS011;21627;48.216;16.482;2022-09-09T14:29:27;2.03;;;0.70;;
35518;SDS011;21627;48.216;16.482;2022-09-09T14:31:54;3.25;;;0.70;;
35518;SDS011;21627;48.216;16.482;2022-09-09T14:34:21;1.75;;;0.63;;
35518;SDS011;21627;48.216;16.482;2022-09-09T14:36:48;2.20;;;0.43;;
35518;SDS011;21627;48.216;16.482;2022-09-09T14:39:16;2.15;;;0.50;;
35518;SDS011;21627;48.216;16.482;2022-09-09T14:41:43;3.80;;;0.60;;
35518;SDS011;21627;48.216;16.482;2022-09-09T14:44:11;2.25;;;0.80;;
35518;SDS011;21627;48.216;16.482;2022-09-09T14:46:38;3.20;;;0.90;;
35518;SDS011;21627;48.216;16.482;2022-09-09T14:49:09;1.90;;;0.60;;
35518;SDS011;21627;48.216;16.482;2022-09-09T14:51:37;1.58;;;0.40;;
35518;SDS011;21627;48.216;16.482;2022-09-09T14:54:04;2.53;;;0.90;;
35518;SDS011;21627;48.216;16.482;2022-09-09T14:56:32;3.72;;;0.90;;
35518;SDS011;21627;48.216;16.482;2022-09-09T14:59:03;1.70;;;0.88;;
35518;SDS011;21627;48.216;16.482;2022-09-09T15:01:30;3.17;;;0.75;;
35518;SDS011;21627;48.216;16.482;2022-09-09T15:04:02;2.28;;;0.70;;
35518;SDS011;21627;48.216;16.482;2022-09-09T15:06:33;2.85;;;0.85;;
35518;SDS011;21627;48.216;16.482;2022-09-09T15:09:05;2.22;;;0.80;;
35518;SDS011;21627;48.216;16.482;2022-09-09T15:11:33;3.78;;;0.93;;
35518;SDS011;21627;48.216;16.482;2022-09-09T15:14:09;4.18;;;1.05;;
35518;SDS011;21627;48.216;16.482;2022-09-09T15:16:38;3.20;;;0.70;;
35518;SDS011;21627;48.216;16.482;2022-09-09T15:19:09;1.17;;;0.73;;
35518;SDS011;21627;48.216;16.482;2022-09-09T15:21:36;2.67;;;0.80;;
35518;SDS011;21627;48.216;16.482;2022-09-09T15:24:07;5.25;;;1.05;;
35518;SDS011;21627;48.216;16.482;2022-09-09T15:26:35;2.45;;;1.15;;
35518;SDS011;21627;48.216;16.482;2022-09-09T15:29:05;2.50;;;0.80;;
35518;SDS011;21627;48.216;16.482;2022-09-09T15:31:37;21.98;;;2.78;;
35518;SDS011;21627;48.216;16.482;2022-09-09T15:34:05;11.40;;;2.20;;
35518;SDS011;21627;48.216;16.482;2022-09-09T15:36:37;12.25;;;2.42;;
35518;SDS011;21627;48.216;16.482;2022-09-09T15:39:11;3.72;;;1.17;;
35518;SDS011;21627;48.216;16.482;2022-09-09T15:41:44;2.58;;;1.00;;
35518;SDS011;21627;48.216;16.482;2022-09-09T15:44:13;3.10;;;0.93;;
35518;SDS011;21627;48.216;16.482;2022-09-09T15:46:46;3.05;;;1.10;;
35518;SDS011;21627;48.216;16.482;2022-09-09T15:49:17;5.65;;;0.98;;
35518;SDS011;21627;48.216;16.482;2022-09-09T15:51:55;2.10;;;0.90;;
35518;SDS011;21627;48.216;16.482;2022-09-09T15:54:33;3.80;;;0.70;;
35518;SDS011;21627;48.216;16.482;2022-09-09T15:57:03;6.50;;;0.93;;
35518;SDS011;21627;48.216;16.482;2022-09-09T15:59:33;2.97;;;0.95;;
35518;SDS011;21627;48.216;16.482;2022-09-09T16:02:01;7.13;;;1.38;;
35518;SDS011;21627;48.216;16.482;2022-09-09T16:04:29;2.78;;;0.98;;
35518;SDS011;21627;48.216;16.482;2022-09-09T16:07:06;5.78;;;1.35;;
35518;SDS011;21627;48.216;16.482;2022-09-09T16:09:36;17.70;;;2.63;;
35518;SDS011;21627;48.216;16.482;2022-09-09T16:12:04;5.57;;;1.40;;
35518;SDS011;21627;48.216;16.482;2022-09-09T16:14:36;8.07;;;1.20;;
35518;SDS011;21627;48.216;16.482;2022-09-09T16:17:06;5.32;;;1.10;;
35518;SDS011;21627;48.216;16.482;2022-09-09T16:19:33;7.05;;;2.25;;
35518;SDS011;21627;48.216;16.482;2022-09-09T16:22:01;6.57;;;1.08;;
35518;SDS011;21627;48.216;16.482;2022-09-09T16:24:33;6.22;;;1.42;;
35518;SDS011;21627;48.216;16.482;2022-09-09T16:27:01;4.85;;;1.30;;
35518;SDS011;21627;48.216;16.482;2022-09-09T16:29:32;6.10;;;1.15;;
35518;SDS011;21627;48.216;16.482;2022-09-09T16:31:59;1.35;;;0.90;;
35518;SDS011;21627;48.216;16.482;2022-09-09T16:34:33;3.70;;;1.00;;
35518;SDS011;21627;48.216;16.482;2022-09-09T16:37:00;3.25;;;1.02;;
35518;SDS011;21627;48.216;16.482;2022-09-09T16:39:28;4.68;;;1.13;;
35518;SDS011;21627;48.216;16.482;2022-09-09T16:41:55;3.05;;;1.00;;
35518;SDS011;21627;48.216;16.482;2022-09-09T16:44:23;2.13;;;1.10;;
35518;SDS011;21627;48.216;16.482;2022-09-09T16:46:52;4.65;;;1.00;;
35518;SDS011;21627;48.216;16.482;2022-09-09T16:49:32;1.58;;;1.00;;
35518;SDS011;21627;48.216;16.482;2022-09-09T16:52:00;4.15;;;1.05;;
35518;SDS011;21627;48.216;16.482;2022-09-09T16:54:28;1.40;;;0.90;;
35518;SDS011;21627;48.216;16.482;2022-09-09T16:56:56;1.95;;;0.90;;
35518;SDS011;21627;48.216;16.482;2022-09-09T16:59:23;4.78;;;0.93;;
35518;SDS011;21627;48.216;16.482;2022-09-09T17:01:51;3.55;;;1.20;;
35518;SDS011;21627;48.216;16.482;2022-09-09T17:04:21;2.80;;;1.00;;
35518;SDS011;21627;48.216;16.482;2022-09-09T17:06:52;1.83;;;0.90;;
35518;SDS011;21627;48.216;16.482;2022-09-09T17:09:21;1.77;;;0.70;;
35518;SDS011;21627;48.216;16.482;2022-09-09T17:11:49;2.38;;;1.00;;
35518;SDS011;21627;48.216;16.482;2022-09-09T17:14:18;3.30;;;0.90;;
35518;SDS011;21627;48.216;16.482;2022-09-09T17:16:48;4.40;;;0.88;;
35518;SDS011;21627;48.216;16.482;2022-09-09T17:19:16;2.58;;;0.85;;
35518;SDS011;21627;48.216;16.482;2022-09-09T17:21:44;4.47;;;1.33;;
35518;SDS011;21627;48.216;16.482;2022-09-09T17:24:36;2.42;;;1.13;;
35518;SDS011;21627;48.216;16.482;2022-09-09T17:27:05;2.92;;;0.85;;
35518;SDS011;21627;48.216;16.482;2022-09-09T17:29:32;1.80;;;0.70;;
35518;SDS011;21627;48.216;16.482;2022-09-09T17:32:02;1.52;;;0.93;;
35518;SDS011;21627;48.216;16.482;2022-09-09T17:34:35;3.80;;;1.15;;
35518;SDS011;21627;48.216;16.482;2022-09-09T17:37:03;0.95;;;0.70;;